Current | Forecast
Updated: 4:00 PM -04 on March 30, 2017
Observed at Timehri, Guyana
Temperature 31°C
Humidity 58%
Dew Point 22°C
Wind NE at 22 km/h
Pressure 1010 hPa (Falling)
Conditions Scattered Clouds
Visibility 10.0 kilometers
UV 3 out of 16
Clouds Scattered Clouds (SCT) : 701 m
Yesterday's Maximum 24°C
Yesterday's Minimum 24°C approx.
Yesterday's Cooling Degree Days 10 approx.
Sunrise5:52 AM -04
Sunset6:02 PM -04
Moon Rise8:02 AM -04
Moon Set8:40 PM -04
Moon PhaseMoon Phase
Waxing Crescent
Raw METARMETAR SYCJ 302000Z 05012KT 020V100 9999 SCT023 31/22 Q1010 NOSIG


Monday
. High: 87° F.
Tuesday
. High: 87° F.
Wednesday
. High: 89° F.
Thursday
. High: 86° F.
Friday
. High: 87° F.
Saturday
. High: 87° F.
Sunday
. High: 86° F.
Monday
. High: 87° F.

Units: English | Metric

Find the Weather for any City, State or Zipcode, or Country:

U.S. State List | Severe Weather | Tropical Storms | Ski Conditions
United States | Canada | Central America | South America | Asia | Europe | Australia | Africa | Islands

Weather Underground

© Copyright 2017
The Weather Company, LLC